createdAt,value
2022-08-03T00:01:29.511Z,3.90
2022-08-03T00:06:37.152Z,3.92
2022-08-03T00:11:41.033Z,3.80
2022-08-03T00:16:44.594Z,3.67
2022-08-03T00:21:49.869Z,3.08
2022-08-03T00:26:53.599Z,3.28
2022-08-03T00:32:00.069Z,2.97
2022-08-03T00:37:05.812Z,2.50
2022-08-03T00:42:09.538Z,3.20
2022-08-03T00:47:13.432Z,2.67
2022-08-03T00:57:21.648Z,3.20
2022-08-03T01:02:25.325Z,3.90
2022-08-03T01:07:40.255Z,3.70
2022-08-03T01:12:49.721Z,3.30
2022-08-03T01:17:57.999Z,3.03
2022-08-03T01:23:36.233Z,3.00
2022-08-03T01:29:04.484Z,2.70
2022-08-03T01:34:16.666Z,2.95
2022-08-03T01:39:22.482Z,2.67
2022-08-03T01:44:30.799Z,2.80
2022-08-03T01:49:39.879Z,2.80
2022-08-03T01:54:46.052Z,2.80
2022-08-03T01:59:51.513Z,2.40
2022-08-03T02:04:59.668Z,2.65
2022-08-03T02:10:06.273Z,2.67
2022-08-03T02:15:11.838Z,2.92
2022-08-03T02:20:20.176Z,3.17
2022-08-03T02:25:23.921Z,2.70
2022-08-03T02:30:34.147Z,2.90
2022-08-03T02:35:41.914Z,2.83
2022-08-03T02:40:47.004Z,2.67
2022-08-03T02:45:52.125Z,2.80
2022-08-03T02:51:00.733Z,2.70
2022-08-03T02:56:06.507Z,2.85
2022-08-03T03:01:11.435Z,2.50
2022-08-03T03:06:17.842Z,2.50
2022-08-03T03:11:24.281Z,2.45
2022-08-03T03:16:29.747Z,2.40
2022-08-03T03:21:36.162Z,2.67
2022-08-03T03:26:42.447Z,2.40
2022-08-03T03:31:46.402Z,2.50
2022-08-03T03:36:51.730Z,2.70
2022-08-03T03:41:55.982Z,2.85
2022-08-03T03:46:59.724Z,2.53
2022-08-03T03:52:05.235Z,2.70
2022-08-03T03:57:09.202Z,2.92
2022-08-03T04:02:17.260Z,2.40
2022-08-03T04:07:25.067Z,2.50
2022-08-03T04:12:31.194Z,2.67
2022-08-03T04:17:35.921Z,2.90
2022-08-03T04:22:42.293Z,3.20
2022-08-03T04:27:47.287Z,3.05
2022-08-03T04:33:11.168Z,2.92
2022-08-03T04:38:20.552Z,2.92
2022-08-03T04:43:26.031Z,2.90
2022-08-03T04:48:30.054Z,3.40
2022-08-03T04:53:35.447Z,3.00
2022-08-03T04:58:39.095Z,3.10
2022-08-03T05:03:42.645Z,3.00
2022-08-03T05:08:48.880Z,3.40
2022-08-03T05:13:54.478Z,3.13
2022-08-03T05:18:58.086Z,3.35
2022-08-03T05:24:03.394Z,3.30
2022-08-03T05:29:07.195Z,2.80
2022-08-03T05:34:10.835Z,3.20
2022-08-03T05:39:16.066Z,3.10
2022-08-03T05:44:19.698Z,3.05
2022-08-03T05:49:23.322Z,3.03
2022-08-03T05:54:55.799Z,3.20
2022-08-03T05:59:53.902Z,3.33
2022-08-03T06:05:01.986Z,3.20
2022-08-03T06:10:36.216Z,3.30
2022-08-03T06:15:31.985Z,3.10
2022-08-03T06:20:35.624Z,3.22
2022-08-03T06:25:40.820Z,3.53
2022-08-03T06:35:47.264Z,3.22
2022-08-03T06:40:52.460Z,3.30
2022-08-03T06:50:58.860Z,3.05
2022-08-03T06:56:06.017Z,3.10
2022-08-03T07:01:09.782Z,4.07
2022-08-03T07:06:13.368Z,3.45
2022-08-03T07:11:18.592Z,3.00
2022-08-03T07:21:25.750Z,3.20
2022-08-03T07:26:30.979Z,3.30
2022-08-03T07:31:34.639Z,3.50
2022-08-03T07:36:38.305Z,3.35
2022-08-03T07:41:43.550Z,3.25
2022-08-03T07:46:47.282Z,3.53
2022-08-03T07:51:50.867Z,3.40
2022-08-03T07:56:56.059Z,4.25
2022-08-03T08:01:59.731Z,3.90
2022-08-03T08:07:03.306Z,3.78
2022-08-03T08:12:15.154Z,4.30
2022-08-03T08:17:19.509Z,3.50
2022-08-03T08:22:30.570Z,3.60
2022-08-03T08:28:29.331Z,3.83
2022-08-03T08:33:06.487Z,3.60
2022-08-03T08:38:10.157Z,3.45
2022-08-03T08:43:15.409Z,3.70
2022-08-03T08:48:23.419Z,3.63
2022-08-03T08:53:30.034Z,3.10
2022-08-03T08:58:42.729Z,3.22
2022-08-03T09:03:46.823Z,3.10
2022-08-03T09:08:50.514Z,3.15
2022-08-03T09:13:56.675Z,3.33
2022-08-03T09:19:13.473Z,3.22
2022-08-03T09:24:40.711Z,3.15
2022-08-03T09:29:49.253Z,3.20
2022-08-03T09:34:57.889Z,3.10
2022-08-03T09:40:01.820Z,3.20
2022-08-03T09:45:07.742Z,3.20
2022-08-03T09:50:11.515Z,2.90
2022-08-03T09:56:21.161Z,2.83
2022-08-03T10:06:19.455Z,2.80
2022-08-03T10:11:31.446Z,3.38
2022-08-03T10:16:36.977Z,3.13
2022-08-03T10:31:59.051Z,2.97
2022-08-03T10:37:08.775Z,3.00
2022-08-03T10:42:14.692Z,3.10
2022-08-03T10:47:19.011Z,3.15
2022-08-03T10:52:32.833Z,2.92
2022-08-03T10:57:49.643Z,2.90
2022-08-03T11:03:17.072Z,3.00
2022-08-03T11:08:30.084Z,2.97
2022-08-03T11:13:33.914Z,3.20
2022-08-03T11:18:37.805Z,2.78
2022-08-03T11:24:05.523Z,3.17
2022-08-03T11:29:31.034Z,3.10
2022-08-03T11:34:34.662Z,3.30
2022-08-03T11:39:44.152Z,3.00
2022-08-03T11:44:48.086Z,3.70
2022-08-03T11:49:52.891Z,3.40
2022-08-03T11:54:58.161Z,3.20
2022-08-03T12:00:01.915Z,3.30
2022-08-03T12:05:06.189Z,3.50
2022-08-03T12:10:13.794Z,3.30
2022-08-03T12:15:17.439Z,3.20
2022-08-03T12:20:31.244Z,3.20
2022-08-03T12:25:41.791Z,3.33
2022-08-03T12:30:47.492Z,3.50
2022-08-03T12:36:02.789Z,3.50
2022-08-03T12:41:09.726Z,3.30
2022-08-03T12:46:15.013Z,3.40
2022-08-03T12:51:19.409Z,3.58
2022-08-03T12:56:24.803Z,3.30
2022-08-03T13:01:37.185Z,3.47
2022-08-03T13:06:40.853Z,3.33
2022-08-03T13:11:57.995Z,3.50
2022-08-03T13:17:06.570Z,3.47
2022-08-03T13:22:14.317Z,3.50
2022-08-03T13:28:04.795Z,3.22
2022-08-03T13:32:43.761Z,3.72
2022-08-03T13:37:48.906Z,3.05
2022-08-03T13:42:54.419Z,3.20
2022-08-03T13:47:58.022Z,3.28
2022-08-03T13:53:01.576Z,3.33
2022-08-03T13:58:07.566Z,3.22
2022-08-03T14:03:14.979Z,2.88
2022-08-03T14:08:18.927Z,3.38
2022-08-03T14:13:24.153Z,3.17
2022-08-03T14:18:33.291Z,3.22
2022-08-03T14:23:38.135Z,3.00
2022-08-03T14:28:43.463Z,3.40
2022-08-03T14:33:47.109Z,3.22
2022-08-03T14:38:51.461Z,3.20
2022-08-03T14:44:01.814Z,2.73
2022-08-03T14:50:31.915Z,3.40
2022-08-03T14:54:29.616Z,3.13
2022-08-03T14:59:54.096Z,3.00
2022-08-03T15:04:58.513Z,3.50
2022-08-03T15:10:02.361Z,3.05
2022-08-03T15:15:08.850Z,3.45
2022-08-03T15:20:28.840Z,2.92
2022-08-03T15:26:30.240Z,3.25
2022-08-03T15:31:02.331Z,2.80
2022-08-03T15:41:13.659Z,2.80
2022-08-03T15:46:29.202Z,2.90
2022-08-03T15:51:33.346Z,2.50
2022-08-03T15:56:36.958Z,2.50
2022-08-03T16:01:42.750Z,2.50
2022-08-03T16:06:46.454Z,2.65
2022-08-03T16:11:50.053Z,2.22
2022-08-03T16:16:56.846Z,2.70
2022-08-03T16:22:00.843Z,2.50
2022-08-03T16:27:04.692Z,2.53
2022-08-03T16:32:10.170Z,2.63
2022-08-03T16:37:37.089Z,2.25
2022-08-03T16:42:37.745Z,2.33
2022-08-03T16:47:43.075Z,2.30
2022-08-03T16:52:47.295Z,2.15
2022-08-03T16:57:59.494Z,2.30
2022-08-03T17:03:18.883Z,2.25
2022-08-03T17:08:27.772Z,1.80
2022-08-03T17:13:39.039Z,1.63
2022-08-03T17:18:53.418Z,1.50
2022-08-03T17:24:01.271Z,1.95
2022-08-03T17:29:12.860Z,1.70
2022-08-03T17:34:18.881Z,1.88
2022-08-03T17:39:41.794Z,2.00
2022-08-03T17:44:47.807Z,1.70
2022-08-03T17:49:53.390Z,1.80
2022-08-03T17:55:54.750Z,2.28
2022-08-03T18:00:28.095Z,2.05
2022-08-03T18:06:10.380Z,1.83
2022-08-03T18:11:09.676Z,1.70
2022-08-03T18:16:22.958Z,2.08
2022-08-03T18:21:28.317Z,1.90
2022-08-03T18:26:53.381Z,2.22
2022-08-03T18:32:03.854Z,2.08
2022-08-03T18:37:11.631Z,2.03
2022-08-03T18:42:26.441Z,2.10
2022-08-03T18:47:53.059Z,2.38
2022-08-03T18:53:04.316Z,2.50
2022-08-03T18:58:25.795Z,2.22
2022-08-03T19:09:05.547Z,2.20
2022-08-03T19:14:14.891Z,2.20
2022-08-03T19:19:21.651Z,2.33
2022-08-03T19:24:31.369Z,2.40
2022-08-03T19:29:59.022Z,2.78
2022-08-03T19:40:10.901Z,2.33
2022-08-03T19:45:21.755Z,2.30
2022-08-03T19:50:25.940Z,2.50
2022-08-03T19:55:33.469Z,2.80
2022-08-03T20:00:39.462Z,2.58
2022-08-03T20:05:54.201Z,2.70
2022-08-03T20:11:01.503Z,2.72
2022-08-03T20:16:06.002Z,2.72
2022-08-03T20:21:14.989Z,2.75
2022-08-03T20:26:23.395Z,2.85
2022-08-03T20:31:32.454Z,3.03
2022-08-03T20:36:40.123Z,3.17
2022-08-03T20:41:45.375Z,3.17
2022-08-03T20:46:53.133Z,3.45
2022-08-03T20:57:09.567Z,2.92
2022-08-03T21:02:13.930Z,3.10
2022-08-03T21:08:04.081Z,3.05
2022-08-03T21:13:01.259Z,2.28
2022-08-03T21:13:12.080Z,2.95
2022-08-03T21:18:19.020Z,3.20
2022-08-03T21:23:35.161Z,3.33
2022-08-03T21:28:50.846Z,3.30
2022-08-03T21:33:56.320Z,3.22
2022-08-03T21:39:00.729Z,3.25
2022-08-03T21:44:06.994Z,3.25
2022-08-03T21:50:05.556Z,3.40
2022-08-03T21:54:38.353Z,3.30
2022-08-03T21:59:48.620Z,3.28
2022-08-03T22:04:56.247Z,3.08
2022-08-03T22:10:02.321Z,3.40
2022-08-03T22:15:12.257Z,3.10
2022-08-03T22:20:16.083Z,3.38
2022-08-03T22:25:21.925Z,3.40
2022-08-03T22:30:27.257Z,3.38
2022-08-03T22:35:47.217Z,3.25
2022-08-03T22:40:53.202Z,3.40
2022-08-03T22:46:09.192Z,3.40
2022-08-03T22:51:17.072Z,3.30
2022-08-03T22:56:20.722Z,3.47
2022-08-03T23:01:28.562Z,3.17
2022-08-03T23:06:35.886Z,3.22
2022-08-03T23:11:42.896Z,3.45
2022-08-03T23:16:54.409Z,3.38
2022-08-03T23:22:03.307Z,3.60
2022-08-03T23:27:08.687Z,3.17
2022-08-03T23:32:15.033Z,3.38
2022-08-03T23:37:19.553Z,3.22
2022-08-03T23:42:24.020Z,3.30
2022-08-03T23:47:46.223Z,3.30
2022-08-03T23:52:58.610Z,3.50
2022-08-03T23:58:10.679Z,3.60
